Westville, Canada
Current Conditions -  °F | °C
As of 7:00 AM on Saturday 20 Dec 2014 (Local Time) from CYYG Reporting Station
Snow Showers Snow Showers  
Wind Chill: 21°   Ceiling: 900
Heat Index: 32°   Visibility: 15mi
Dew Point: 28°   Wind: 17mph
Humidity: 87%   Direction: 20°NNE
Pressure: 30.16"   Gusts: 23mph
Location:  45.55°N, 62.72°W
Report Text: CYYG 201100Z 02015G20KT 15SM -SHSN BKN009 BKN020 OVC034 M00/M02 A3016 RMK SF5SC1SC2 SLP217
Loading
Personal Weather Stations






























Interactive Weather Map New forecast layout! Learn more

10-Day Weather Forecast

Advertisements
Track Severe Weather on mobile